Time;durP1;ratioP1;P1;durP2;ratioP2;P2;SDS_P1;SDS_P2;PMS_P1;PMS_P2;Temp;Humidity;BMP_temperature;BMP_pressure;BME280_temperature;BME280_humidity;BME280_pressure;Samples;Min_cycle;Max_cycle;Signal;HPM_P1;HPM_P2
2022/08/22 00:00:11;;;;;;;3.83;3.08;;;;;;;24.91;43.50;100929.16;2341737;76;51581;-71
2022/08/22 00:03:16;;;;;;;3.60;2.83;;;;;;;24.91;43.46;100928.33;2342007;75;22278;-71
2022/08/22 00:06:37;;;;;;;4.25;3.02;;;;;;;24.90;43.36;100938.34;2294584;75;51321;-71
2022/08/22 00:09:57;;;;;;;4.80;3.12;;;;;;;24.89;43.40;100935.34;2271053;78;50776;-73
2022/08/22 00:13:11;;;;;;;6.45;2.90;;;;;;;24.88;43.34;100935.01;2270855;77;50368;-72
2022/08/22 00:16:19;;;;;;;4.70;3.12;;;;;;;24.89;43.36;100925.86;2246025;78;50963;-73
2022/08/22 00:19:46;;;;;;;3.77;2.70;;;;;;;24.89;43.34;100925.86;2270958;77;51544;-74
2022/08/22 00:23:16;;;;;;;3.33;2.83;;;;;;;24.88;43.27;100926.89;2268636;77;50662;-72
2022/08/22 00:26:27;;;;;;;4.22;2.83;;;;;;;24.88;43.27;100918.77;2309512;77;51590;-71
2022/08/22 00:29:41;;;;;;;4.90;2.75;;;;;;;24.87;43.26;100922.53;2309731;77;50466;-72
2022/08/22 00:33:01;;;;;;;4.03;2.65;;;;;;;24.88;43.27;100916.59;2307875;77;50384;-71
2022/08/22 00:36:07;;;;;;;6.33;3.17;;;;;;;24.87;43.24;100913.59;2285029;77;51490;-72
2022/08/22 00:39:15;;;;;;;3.30;2.80;;;;;;;24.88;43.25;100912.53;2269914;77;51325;-74
2022/08/22 00:42:40;;;;;;;3.75;2.40;;;;;;;24.87;43.19;100920.36;2271052;77;50602;-71
2022/08/22 00:46:15;;;;;;;4.33;2.95;;;;;;;24.86;43.22;100918.16;2276119;77;51553;-71
2022/08/22 00:49:54;;;;;;;4.30;2.77;;;;;;;24.87;43.25;100918.48;2302378;77;51349;-72
2022/08/22 00:53:16;;;;;;;4.50;2.80;;;;;;;24.87;43.24;100925.77;2302444;77;51538;-72
2022/08/22 00:56:39;;;;;;;6.97;2.87;;;;;;;24.85;43.22;100920.56;2302462;77;50756;-72
2022/08/22 01:00:18;;;;;;;4.47;3.25;;;;;;;24.86;43.22;100921.39;2283105;77;50949;-71
2022/08/22 01:03:27;;;;;;;7.62;3.20;;;;;;;24.85;43.11;100924.63;2302729;77;51476;-74
2022/08/22 01:06:42;;;;;;;4.10;3.40;;;;;;;24.84;43.14;100922.98;2302441;77;51544;-71
2022/08/22 01:09:53;;;;;;;6.25;3.35;;;;;;;24.84;43.08;100928.39;2283132;77;49512;-71
2022/08/22 01:13:01;;;;;;;5.17;4.12;;;;;;;24.85;43.15;100934.63;2302603;77;51505;-70
2022/08/22 01:16:34;;;;;;;9.53;4.70;;;;;;;24.84;43.06;100939.72;2300426;77;50340;-71
2022/08/22 01:20:00;;;;;;;7.20;4.15;;;;;;;24.83;42.94;100940.25;2302681;77;51513;-73
2022/08/22 01:23:12;;;;;;;;;;;;;;;24.83;42.82;100941.60;2326334;76;50410;-73
2022/08/22 01:26:49;;;;;;;8.03;4.28;;;;;;;24.84;42.90;100945.98;2341965;75;50241;-73
2022/08/22 01:30:11;;;;;;;7.05;3.90;;;;;;;24.82;42.88;100945.37;2342118;76;50720;-72
2022/08/22 01:33:48;;;;;;;5.87;3.92;;;;;;;24.82;42.91;100949.42;2341921;76;51483;-72
2022/08/22 01:37:00;;;;;;;5.92;3.83;;;;;;;24.81;42.94;100946.92;2238310;75;52313;-71
2022/08/22 01:40:31;;;;;;;6.37;4.05;;;;;;;24.81;42.94;100949.11;2342277;76;50641;-71
2022/08/22 01:43:59;;;;;;;5.53;3.75;;;;;;;24.80;42.95;100950.69;2342344;76;51515;-73
2022/08/22 01:47:17;;;;;;;5.62;3.90;;;;;;;24.81;42.97;100955.05;2342018;76;50355;-75
2022/08/22 01:50:34;;;;;;;6.58;3.40;;;;;;;24.80;42.98;100951.52;2341791;76;51439;-71
2022/08/22 01:53:52;;;;;;;5.72;3.72;;;;;;;24.81;42.93;100955.05;2342320;76;50725;-71
2022/08/22 01:56:57;;;;;;;4.75;3.20;;;;;;;24.78;42.95;100950.90;2322076;76;50071;-71
2022/08/22 02:00:06;;;;;;;5.97;3.70;;;;;;;24.80;42.96;100956.93;2342227;76;50634;-72
2022/08/22 02:03:08;;;;;;;4.97;4.03;;;;;;;24.78;42.94;100953.60;2342097;75;22282;-72
2022/08/22 02:06:16;;;;;;;5.80;4.35;;;;;;;24.78;42.89;100950.90;2322062;76;50882;-71
2022/08/22 02:09:38;;;;;;;6.72;4.78;;;;;;;24.79;42.94;100948.52;2342150;75;50272;-72
2022/08/22 02:13:06;;;;;;;7.62;5.17;;;;;;;24.80;42.94;100947.98;2342249;76;51639;-72
2022/08/22 02:16:27;;;;;;;7.58;5.83;;;;;;;24.77;42.95;100941.95;2342072;76;51539;-71
2022/08/22 02:19:47;;;;;;;6.25;4.35;;;;;;;24.78;42.91;100948.19;2341604;75;51458;-72
2022/08/22 02:22:55;;;;;;;5.45;4.25;;;;;;;24.80;42.97;100952.05;2322877;75;50337;-71
2022/08/22 02:26:09;;;;;;;8.88;4.15;;;;;;;24.77;42.98;100950.07;2302703;76;50724;-71
2022/08/22 02:29:21;;;;;;;6.47;3.90;;;;;;;24.78;42.94;100947.66;2302857;76;51543;-71
2022/08/22 02:32:29;;;;;;;5.20;4.12;;;;;;;24.77;42.96;100950.60;2281797;77;49565;-74
2022/08/22 02:35:41;;;;;;;6.17;4.22;;;;;;;24.78;42.95;100949.55;2269850;76;50299;-72
2022/08/22 02:38:52;;;;;;;4.97;3.40;;;;;;;24.77;42.96;100947.89;2279014;76;50356;-71
2022/08/22 02:42:14;;;;;;;4.60;3.70;;;;;;;24.75;42.99;100948.10;2255936;78;51370;-71
2022/08/22 02:45:25;;;;;;;6.33;3.62;;;;;;;24.74;43.00;100942.92;2280093;78;51504;-72
2022/08/22 02:48:57;;;;;;;5.20;3.55;;;;;;;24.75;43.01;100942.69;2256077;78;52685;-71
2022/08/22 02:52:05;;;;;;;5.35;3.25;;;;;;;24.74;43.02;100950.52;2260241;76;51448;-71
2022/08/22 02:55:18;;;;;;;5.15;3.35;;;;;;;24.74;43.04;100946.45;2318390;76;50848;-71
2022/08/22 02:58:27;;;;;;;5.30;3.17;;;;;;;24.74;43.06;100942.39;2306187;76;51103;-72
2022/08/22 03:01:36;;;;;;;5.08;3.40;;;;;;;24.75;43.07;100943.22;2318618;76;51537;-71
2022/08/22 03:04:45;;;;;;;4.90;3.10;;;;;;;24.74;43.11;100938.34;2318642;76;51485;-72
2022/08/22 03:08:14;;;;;;;4.67;3.10;;;;;;;24.74;43.08;100941.57;2318301;76;50095;-72
2022/08/22 03:11:31;;;;;;;5.47;3.20;;;;;;;24.74;43.13;100944.28;2318474;76;50379;-72
2022/08/22 03:14:36;;;;;;;4.40;3.00;;;;;;;24.74;43.11;100937.52;2306219;76;52759;-72
2022/08/22 03:17:56;;;;;;;;;;;;;;;24.74;43.11;100938.86;2320729;76;51631;-73
2022/08/22 03:21:01;;;;;;;4.35;3.02;;;;;;;24.75;43.16;100932.39;2321046;76;52477;-72
2022/08/22 03:24:16;;;;;;;3.60;3.00;;;;;;;24.74;43.16;100936.98;2231569;78;51007;-72
2022/08/22 03:27:23;;;;;;;6.80;3.55;;;;;;;24.74;43.16;100932.92;2279881;78;50325;-72
2022/08/22 03:30:46;;;;;;;5.40;3.42;;;;;;;24.74;43.19;100930.75;2280056;78;50726;-72
2022/08/22 03:34:21;;;;;;;4.75;3.30;;;;;;;24.74;43.19;100928.04;2299940;77;49564;-71
2022/08/22 03:37:38;;;;;;;6.28;3.45;;;;;;;24.73;43.25;100927.19;2257930;78;50272;-72
2022/08/22 03:41:01;;;;;;;5.37;3.45;;;;;;;24.74;43.24;100932.09;2323073;76;51491;-73
2022/08/22 03:44:10;;;;;;;3.83;3.10;;;;;;;24.72;43.32;100926.06;2323171;76;51488;-72
2022/08/22 03:47:31;;;;;;;4.97;3.17;;;;;;;24.73;43.31;100926.36;2322902;76;50229;-72
2022/08/22 03:50:42;;;;;;;3.92;2.80;;;;;;;24.73;43.31;100928.54;2350097;75;51528;-71
2022/08/22 03:54:04;;;;;;;5.03;3.05;;;;;;;24.72;43.33;100934.19;2296735;76;52525;-72
2022/08/22 03:57:21;;;;;;;5.30;2.87;;;;;;;24.71;43.39;100936.56;2322902;76;50605;-73
2022/08/22 04:00:54;;;;;;;4.95;3.08;;;;;;;24.71;43.36;100934.72;2296645;76;52745;-73
2022/08/22 04:04:20;;;;;;;4.08;2.95;;;;;;;24.72;43.37;100945.02;2322270;75;50278;-71
2022/08/22 04:07:44;;;;;;;3.55;2.67;;;;;;;24.71;43.41;100943.33;2322739;76;50263;-70
2022/08/22 04:11:04;;;;;;;5.00;2.87;;;;;;;24.72;43.42;100945.02;2256060;76;51491;-73
2022/08/22 04:14:18;;;;;;;6.53;3.25;;;;;;;24.71;43.47;100948.25;2313133;76;51523;-72
2022/08/22 04:17:39;;;;;;;4.30;3.00;;;;;;;24.72;43.47;100945.02;2293464;77;50856;-73
2022/08/22 04:20:57;;;;;;;4.00;2.80;;;;;;;24.71;43.51;100952.30;2313852;75;52733;-72
2022/08/22 04:24:08;;;;;;;4.35;2.98;;;;;;;24.71;43.52;100950.09;2353512;75;50274;-72
2022/08/22 04:27:42;;;;;;;4.58;3.00;;;;;;;24.71;43.57;100949.60;2333216;75;49677;-71
2022/08/22 04:30:54;;;;;;;4.12;3.10;;;;;;;24.71;43.59;100952.80;2353598;75;50322;-72
2022/08/22 04:34:02;;;;;;;5.53;3.25;;;;;;;24.71;43.63;100952.80;2343279;75;50396;-71
2022/08/22 04:37:08;;;;;;;4.67;2.95;;;;;;;24.71;43.68;100964.98;2346762;75;50229;-71
2022/08/22 04:40:29;;;;;;;3.90;3.17;;;;;;;24.70;43.71;100965.51;2341797;76;50231;-71
2022/08/22 04:43:34;;;;;;;5.92;2.92;;;;;;;24.71;43.71;100967.69;2317197;76;50502;-72
2022/08/22 04:46:40;;;;;;;;;;;;;;;24.71;43.73;100969.04;2344409;75;50732;-73
2022/08/22 04:49:46;;;;;;;4.28;2.92;;;;;;;24.71;43.75;100975.80;2331360;76;51632;-73
2022/08/22 04:53:04;;;;;;;;;;;;;;;24.71;43.78;100970.39;2311095;76;50069;-71
2022/08/22 04:56:25;;;;;;;4.30;3.10;;;;;;;24.72;43.80;100976.13;2302437;77;52459;-71
2022/08/22 04:59:28;;;;;;;5.35;3.12;;;;;;;24.70;43.83;100983.63;2302443;75;50805;-70
2022/08/22 05:02:30;;;;;;;3.77;2.90;;;;;;;24.70;43.84;100979.57;2258344;77;51364;-70
2022/08/22 05:05:35;;;;;;;4.50;3.00;;;;;;;24.69;43.89;100986.86;2274012;76;50389;-71
2022/08/22 05:08:38;;;;;;;8.75;3.30;;;;;;;24.71;43.88;100992.90;2341810;76;51490;-71
2022/08/22 05:11:41;;;;;;;5.70;2.90;;;;;;;24.70;43.95;100987.16;2322081;76;52546;-73
2022/08/22 05:14:52;;;;;;;4.75;2.92;;;;;;;24.71;43.93;100994.75;2341863;76;50344;-70
2022/08/22 05:17:56;;;;;;;7.08;3.10;;;;;;;24.72;43.96;101005.90;2336771;75;50058;-71
2022/08/22 05:21:00;;;;;;;5.08;2.85;;;;;;;24.72;44.01;100997.78;2302677;77;50342;-70
2022/08/22 05:24:11;;;;;;;7.55;3.05;;;;;;;24.72;43.98;100990.48;2302634;77;50786;-70
2022/08/22 05:27:17;;;;;;;5.53;3.27;;;;;;;24.73;44.01;100994.02;2283062;77;49549;-70
2022/08/22 05:30:22;;;;;;;7.20;2.83;;;;;;;24.73;44.02;101004.31;2302718;75;50290;-70
2022/08/22 05:33:33;;;;;;;6.10;3.02;;;;;;;24.74;44.06;101003.81;2318726;76;50742;-70
2022/08/22 05:36:38;;;;;;;4.45;2.92;;;;;;;24.75;44.07;101004.11;2287387;76;50990;-71
2022/08/22 05:39:45;;;;;;;8.05;3.30;;;;;;;24.75;44.10;101008.17;2301488;76;50379;-69
2022/08/22 05:42:46;;;;;;;6.50;3.12;;;;;;;24.75;44.08;101002.23;2298169;77;22211;-73
2022/08/22 05:45:49;;;;;;;4.58;3.00;;;;;;;24.76;44.13;101007.11;2303484;76;51541;-70
2022/08/22 05:48:54;;;;;;;8.55;3.33;;;;;;;24.76;44.13;101004.41;2292169;77;51499;-70
2022/08/22 05:52:06;;;;;;;9.33;3.30;;;;;;;24.76;44.16;101007.11;2310055;76;51116;-69
2022/08/22 05:55:31;;;;;;;8.53;3.30;;;;;;;24.76;44.19;101002.55;2308460;76;50813;-69
2022/08/22 05:58:48;;;;;;;6.37;3.43;;;;;;;24.76;44.29;101005.75;2303114;76;50437;-70
2022/08/22 06:02:19;;;;;;;7.60;3.30;;;;;;;24.77;44.33;101015.03;2283956;77;52759;-71
2022/08/22 06:05:25;;;;;;;8.65;3.87;;;;;;;24.78;44.30;101018.03;2302908;77;50264;-69
2022/08/22 06:08:37;;;;;;;;;;;;;;;24.80;44.43;101015.65;2307134;76;50927;-72
2022/08/22 06:11:42;;;;;;;13.00;3.95;;;;;;;24.81;44.57;101024.06;2287916;77;50094;-71
2022/08/22 06:15:02;;;;;;;9.85;3.45;;;;;;;24.78;44.62;101019.38;2304021;77;50887;-72
2022/08/22 06:18:08;;;;;;;8.63;3.65;;;;;;;24.82;44.71;101031.16;2302698;76;51464;-70
2022/08/22 06:21:22;;;;;;;7.87;4.00;;;;;;;24.83;44.76;101033.63;2312026;76;49196;-71
2022/08/22 06:24:26;;;;;;;10.05;4.20;;;;;;;24.86;44.88;101034.55;2319715;76;52024;-69
2022/08/22 06:27:28;;;;;;;14.13;4.20;;;;;;;24.89;44.94;101033.28;2321506;76;52541;-70
2022/08/22 06:30:30;;;;;;;11.15;4.28;;;;;;;24.93;44.94;101037.23;2341847;76;50351;-70
2022/08/22 06:33:35;;;;;;;10.05;3.85;;;;;;;24.97;44.93;101033.88;2341804;76;51351;-70
2022/08/22 06:36:38;;;;;;;;;;;;;;;24.99;44.90;101035.82;2282019;76;49944;-69
2022/08/22 06:39:42;;;;;;;8.48;4.17;;;;;;;25.00;44.90;101036.68;2341936;76;50214;-70
2022/08/22 06:42:47;;;;;;;9.33;4.30;;;;;;;25.01;44.86;101032.09;2341804;76;50401;-69
2022/08/22 06:45:49;;;;;;;9.20;3.92;;;;;;;25.02;44.83;101038.62;2320527;76;50919;-72
2022/08/22 06:48:51;;;;;;;8.50;3.87;;;;;;;25.03;44.83;101036.24;2340870;76;51562;-69
2022/08/22 06:51:55;;;;;;;8.30;3.85;;;;;;;25.03;44.83;101045.72;2309652;76;50720;-69
2022/08/22 06:55:02;;;;;;;7.75;3.77;;;;;;;25.03;44.85;101042.19;2302437;75;50741;-72
2022/08/22 06:58:28;;;;;;;8.90;3.75;;;;;;;25.07;44.77;101035.27;2334757;76;50393;-69
2022/08/22 07:01:34;;;;;;;8.00;4.03;;;;;;;25.06;44.77;101044.45;2341943;75;51451;-71
2022/08/22 07:04:36;;;;;;;9.03;3.95;;;;;;;25.06;44.77;101053.40;2341765;76;52342;-70
2022/08/22 07:07:38;;;;;;;6.42;3.25;;;;;;;25.07;44.78;101051.52;2333322;75;50146;-70
2022/08/22 07:10:43;;;;;;;7.60;3.52;;;;;;;25.05;44.82;101050.40;2292646;76;51090;-70
2022/08/22 07:13:55;;;;;;;5.00;3.40;;;;;;;25.07;44.80;101052.88;2340667;75;49263;-70
2022/08/22 07:17:00;;;;;;;8.05;3.33;;;;;;;25.06;44.78;101056.11;2340103;75;51503;-72
2022/08/22 07:20:22;;;;;;;10.13;3.42;;;;;;;25.10;44.73;101055.14;2320291;75;53150;-70
2022/08/22 07:23:33;;;;;;;6.30;3.42;;;;;;;25.07;44.76;101056.41;2341945;76;50731;-69
2022/08/22 07:26:51;;;;;;;6.33;3.22;;;;;;;25.08;44.72;101058.61;2321667;76;51965;-72
2022/08/22 07:30:02;;;;;;;6.12;2.95;;;;;;;25.09;44.75;101059.73;2341635;75;50440;-69
2022/08/22 07:33:07;;;;;;;9.30;3.35;;;;;;;25.09;44.70;101061.08;2340711;75;51557;-69
2022/08/22 07:36:28;;;;;;;8.55;3.50;;;;;;;25.11;44.69;101066.30;2341514;76;51457;-70
2022/08/22 07:39:44;;;;;;;6.12;3.25;;;;;;;25.11;44.67;101066.30;2341689;75;51543;-69
2022/08/22 07:43:06;;;;;;;6.28;3.10;;;;;;;25.10;44.69;101060.05;2341574;75;50329;-73
2022/08/22 07:46:14;;;;;;;6.65;3.17;;;;;;;25.12;44.66;101066.06;2341501;75;52137;-69
2022/08/22 07:49:22;;;;;;;8.48;2.80;;;;;;;25.10;44.67;101062.77;2330547;76;51580;-69
2022/08/22 07:52:24;;;;;;;8.98;3.33;;;;;;;25.10;44.66;101070.03;2316202;76;51300;-70
2022/08/22 07:55:27;;;;;;;6.42;2.90;;;;;;;25.06;44.71;101071.53;2341794;76;50333;-70
2022/08/22 07:58:30;;;;;;;4.12;2.65;;;;;;;25.08;44.69;101065.38;2341382;74;51435;-70
2022/08/22 08:01:32;;;;;;;5.20;2.67;;;;;;;25.08;44.68;101069.44;2320488;76;51449;-71
2022/08/22 08:04:35;;;;;;;5.03;2.90;;;;;;;25.06;44.74;101063.41;2340706;75;50879;-72
2022/08/22 08:07:39;;;;;;;6.72;2.95;;;;;;;25.07;44.72;101066.41;2339752;74;50320;-70
2022/08/22 08:10:41;;;;;;;9.98;2.95;;;;;;;25.06;44.68;101062.88;2340466;76;50299;-70
2022/08/22 08:13:46;;;;;;;6.40;2.72;;;;;;;25.10;44.66;101072.73;2341714;76;50396;-70
2022/08/22 08:16:57;;;;;;;5.33;2.72;;;;;;;25.12;44.58;101069.30;2320048;76;50894;-73
2022/08/22 08:20:00;;;;;;;5.85;3.22;;;;;;;25.13;44.56;101062.33;2299511;76;50743;-69
2022/08/22 08:23:02;;;;;;;8.38;3.40;;;;;;;25.11;44.61;101067.66;2283357;77;50398;-72
2022/08/22 08:26:10;;;;;;;5.50;2.70;;;;;;;25.08;44.65;101070.27;2307793;76;51656;-69
2022/08/22 08:29:15;;;;;;;6.87;3.20;;;;;;;25.13;44.59;101066.92;2302839;76;51526;-71
2022/08/22 08:32:17;;;;;;;5.97;2.90;;;;;;;25.16;44.48;101066.51;2302716;77;51579;-69
2022/08/22 08:35:23;;;;;;;10.05;2.72;;;;;;;25.14;44.50;101072.09;2326828;76;51413;-71
2022/08/22 08:38:35;;;;;;;6.70;2.80;;;;;;;25.15;44.49;101071.56;2300962;77;50492;-69
2022/08/22 08:41:52;;;;;;;4.08;2.25;;;;;;;25.18;44.39;101069.84;2308998;76;49550;-70
2022/08/22 08:45:16;;;;;;;9.43;2.60;;;;;;;25.19;44.35;101068.25;2302433;77;51550;-70
2022/08/22 08:48:41;;;;;;;9.75;2.67;;;;;;;25.18;44.34;101065.78;2336335;76;51484;-71
2022/08/22 08:51:52;;;;;;;7.30;2.50;;;;;;;25.19;44.31;101066.07;2297886;76;51300;-71
2022/08/22 08:55:09;;;;;;;8.20;2.50;;;;;;;25.18;44.34;101060.36;2309158;75;50745;-71
2022/08/22 08:58:27;;;;;;;10.25;2.77;;;;;;;25.20;44.27;101055.03;2302103;76;50622;-71
2022/08/22 09:01:48;;;;;;;4.97;2.25;;;;;;;25.20;44.24;101059.59;2302196;77;51460;-71
2022/08/22 09:05:13;;;;;;;9.25;2.47;;;;;;;25.22;44.22;101066.16;2302354;77;50862;-71
2022/08/22 09:08:21;;;;;;;5.80;2.60;;;;;;;25.20;44.21;101059.59;2282819;76;50102;-71
2022/08/22 09:11:33;;;;;;;7.87;2.33;;;;;;;25.22;44.21;101062.09;2302076;77;50739;-72
2022/08/22 09:14:47;;;;;;;6.00;2.60;;;;;;;25.21;44.25;101061.27;2301250;75;51546;-75
2022/08/22 09:18:05;;;;;;;7.53;2.52;;;;;;;25.22;44.21;101067.52;2282630;76;52392;-74
2022/08/22 09:21:26;;;;;;;4.67;2.37;;;;;;;25.20;44.21;101065.86;2312987;76;52575;-71
2022/08/22 09:24:52;;;;;;;8.68;2.47;;;;;;;25.22;44.19;101064.27;2328741;76;50608;-74
2022/08/22 09:28:03;;;;;;;6.17;2.22;;;;;;;25.22;44.15;101066.98;2272841;78;50341;-73
2022/08/22 09:31:29;;;;;;;4.47;2.25;;;;;;;25.24;44.13;101071.66;2270613;78;52992;-70
2022/08/22 09:34:43;;;;;;;6.87;2.37;;;;;;;25.24;44.10;101067.60;2247896;78;50070;-71
2022/08/22 09:38:05;;;;;;;4.08;1.90;;;;;;;25.27;44.04;101070.40;2273212;78;51506;-73
2022/08/22 09:41:16;;;;;;;7.33;2.40;;;;;;;25.25;44.04;101078.73;2273265;78;51469;-70
2022/08/22 09:44:21;;;;;;;9.03;2.22;;;;;;;25.26;44.00;101079.58;2273235;78;50385;-70
2022/08/22 09:47:34;;;;;;;4.58;2.17;;;;;;;25.25;43.99;101070.61;2271890;77;50264;-72
2022/08/22 09:50:42;;;;;;;5.30;2.15;;;;;;;25.21;44.04;101082.94;2273175;78;50440;-71
2022/08/22 09:54:02;;;;;;;7.67;2.17;;;;;;;25.23;44.03;101075.43;2273610;78;51497;-72
2022/08/22 09:57:25;;;;;;;6.97;2.20;;;;;;;25.20;44.11;101066.36;2272629;78;51595;-72
2022/08/22 10:00:39;;;;;;;5.90;2.25;;;;;;;25.20;44.04;101069.92;2247660;78;51006;-72
2022/08/22 10:03:59;;;;;;;10.35;2.42;;;;;;;25.22;44.00;101077.81;2277550;76;22516;-72
2022/08/22 10:07:33;;;;;;;7.70;2.40;;;;;;;25.25;43.92;101071.95;2341426;76;50838;-74
2022/08/22 10:10:54;;;;;;;6.08;2.30;;;;;;;25.26;43.91;101070.93;2321713;76;51446;-73
2022/08/22 10:14:00;;;;;;;5.75;2.27;;;;;;;25.28;43.89;101070.20;2341686;76;50720;-72
2022/08/22 10:17:20;;;;;;;7.95;2.45;;;;;;;25.28;43.90;101075.61;2334234;76;51551;-73
2022/08/22 10:20:31;;;;;;;11.78;2.52;;;;;;;25.32;43.81;101074.11;2314384;75;51585;-72
2022/08/22 10:23:37;;;;;;;9.23;2.50;;;;;;;25.30;43.87;101072.14;2302504;77;50046;-72
2022/08/22 10:26:50;;;;;;;7.28;2.20;;;;;;;25.33;43.83;101077.14;2281414;77;49589;-74
2022/08/22 10:30:13;;;;;;;9.63;2.72;;;;;;;25.33;43.82;101080.35;2302513;76;50241;-75
2022/08/22 10:33:24;;;;;;;9.08;2.65;;;;;;;25.32;43.87;101074.11;2301839;75;50263;-73
2022/08/22 10:36:36;;;;;;;7.62;2.30;;;;;;;25.31;43.84;101067.58;2282095;77;51361;-73
2022/08/22 10:39:44;;;;;;;9.38;2.40;;;;;;;25.33;43.83;101074.44;2246285;77;50411;-73
2022/08/22 10:42:51;;;;;;;8.40;2.15;;;;;;;25.38;43.69;101077.32;2302499;77;50402;-75
2022/08/22 10:46:02;;;;;;;8.73;2.92;;;;;;;25.35;43.80;101070.13;2247837;76;50610;-75
2022/08/22 10:49:13;;;;;;;12.03;2.65;;;;;;;25.35;43.79;101079.09;2328653;76;50278;-73
2022/08/22 10:52:22;;;;;;;12.70;2.62;;;;;;;25.36;43.74;101073.17;2342047;76;51493;-74
2022/08/22 10:55:26;;;;;;;8.05;2.37;;;;;;;25.35;43.72;101062.83;2341778;75;50790;-72
2022/08/22 10:58:28;;;;;;;11.00;2.72;;;;;;;25.38;43.66;101061.56;2341587;76;51485;-73
2022/08/22 11:01:36;;;;;;;8.88;2.70;;;;;;;25.37;43.63;101060.74;2321724;76;49412;-74
2022/08/22 11:04:49;;;;;;;9.08;2.37;;;;;;;25.38;43.53;101062.42;2341985;75;22450;-73
2022/08/22 11:08:14;;;;;;;6.10;2.58;;;;;;;25.37;43.59;101068.05;2336880;76;51542;-76
2022/08/22 11:11:29;;;;;;;10.07;2.73;;;;;;;25.42;43.50;101068.22;2321992;76;51582;-73
2022/08/22 11:14:38;;;;;;;7.78;2.40;;;;;;;25.37;43.57;101064.80;2341082;75;51053;-78
2022/08/22 11:18:05;;;;;;;4.92;2.12;;;;;;;25.38;43.63;101070.55;2315516;76;49602;-75
2022/08/22 11:21:22;;;;;;;6.22;2.22;;;;;;;25.38;43.64;101065.62;2317426;76;50840;-74
2022/08/22 11:24:33;;;;;;;7.83;2.22;;;;;;;25.37;43.66;101060.74;2341254;75;50320;-72
2022/08/22 11:28:00;;;;;;;7.47;2.20;;;;;;;25.45;43.49;101062.89;2341421;76;51437;-75
2022/08/22 11:31:18;;;;;;;7.28;2.22;;;;;;;25.38;43.61;101065.62;2341774;75;50731;-71
2022/08/22 11:34:33;;;;;;;11.85;2.37;;;;;;;25.38;43.69;101066.98;2341755;75;51577;-73
2022/08/22 11:37:55;;;;;;;3.80;2.22;;;;;;;25.41;43.61;101066.58;2321084;76;51385;-73
2022/08/22 11:41:18;;;;;;;7.35;2.27;;;;;;;25.46;43.51;101064.04;2340485;75;51511;-73
2022/08/22 11:44:32;;;;;;;8.35;2.25;;;;;;;25.44;43.59;101055.82;2341984;76;50817;-73
2022/08/22 11:47:37;;;;;;;6.85;2.17;;;;;;;25.39;43.65;101061.89;2316809;76;50046;-72
2022/08/22 11:50:45;;;;;;;7.45;2.15;;;;;;;25.39;43.64;101062.72;2330666;75;50758;-74
2022/08/22 11:53:59;;;;;;;9.33;2.20;;;;;;;25.38;43.73;101059.71;2327505;75;51463;-74
2022/08/22 11:57:05;;;;;;;7.92;2.33;;;;;;;25.33;43.83;101062.75;2285831;75;51489;-73
2022/08/22 12:00:43;;;;;;;10.10;2.77;;;;;;;25.30;43.96;101062.66;2341357;75;51500;-73
2022/08/22 12:04:04;;;;;;;6.85;1.80;;;;;;;25.38;43.83;101054.30;2311705;76;50129;-74
2022/08/22 12:07:15;;;;;;;7.15;2.25;;;;;;;25.39;43.85;101051.88;2384709;74;50475;-73
2022/08/22 12:10:20;;;;;;;7.65;2.47;;;;;;;25.40;43.84;101054.88;2375503;74;50735;-71
2022/08/22 12:14:00;;;;;;;18.60;2.57;;;;;;;25.37;44.01;101062.62;2344012;75;50735;-73
2022/08/22 12:17:18;;;;;;;10.95;2.25;;;;;;;25.35;44.14;101052.53;2320228;75;50385;-74
2022/08/22 12:20:52;;;;;;;10.82;2.25;;;;;;;25.37;44.03;101048.55;2344022;74;50621;-72
2022/08/22 12:23:58;;;;;;;10.03;2.45;;;;;;;25.35;44.04;101057.41;2344072;75;52357;-72
2022/08/22 12:27:18;;;;;;;7.25;2.08;;;;;;;25.36;44.02;101048.26;2343629;76;50249;-72
2022/08/22 12:30:30;;;;;;;3.70;2.15;;;;;;;25.37;43.99;101041.78;2344145;76;51437;-72
2022/08/22 12:33:44;;;;;;;5.53;2.42;;;;;;;25.35;43.99;101041.16;2344015;76;50792;-73
2022/08/22 12:37:01;;;;;;;10.68;2.47;;;;;;;25.35;44.04;101034.92;2339650;76;50391;-72
2022/08/22 12:40:10;;;;;;;9.05;2.52;;;;;;;25.35;44.00;101031.68;2311707;76;49545;-72
2022/08/22 12:43:24;;;;;;;6.50;2.30;;;;;;;25.36;43.97;101034.72;2343027;76;50308;-72
2022/08/22 12:46:42;;;;;;;7.12;2.33;;;;;;;25.34;44.04;101033.27;2274889;74;51502;-73
2022/08/22 12:50:07;;;;;;;7.92;2.30;;;;;;;25.34;44.07;101029.21;2384986;74;51551;-72
2022/08/22 12:53:45;;;;;;;8.98;2.30;;;;;;;25.36;44.04;101034.72;2360786;74;50338;-73
2022/08/22 12:57:08;;;;;;;7.47;2.25;;;;;;;25.36;44.02;101025.23;2345186;75;50780;-71
2022/08/22 13:00:23;;;;;;;6.20;2.10;;;;;;;25.37;43.96;101020.64;2375639;75;50712;-71
2022/08/22 13:03:28;;;;;;;5.15;2.08;;;;;;;25.35;43.98;101018.67;2355703;75;50245;-74
2022/08/22 13:06:39;;;;;;;6.97;2.27;;;;;;;25.36;43.99;101022.52;2333087;75;52541;-72
2022/08/22 13:09:45;;;;;;;5.20;2.15;;;;;;;25.36;43.95;101018.46;2355838;75;50636;-71
2022/08/22 13:12:53;;;;;;;12.98;2.25;;;;;;;25.35;44.00;101013.25;2355577;75;50238;-71
2022/08/22 13:16:02;;;;;;;7.65;2.10;;;;;;;25.35;43.98;101014.07;2355637;75;51481;-72
2022/08/22 13:19:06;;;;;;;6.70;2.10;;;;;;;25.34;44.01;101015.14;2354517;75;52500;-72
2022/08/22 13:22:12;;;;;;;7.28;2.30;;;;;;;25.37;43.94;101014.69;2316771;76;51131;-72
2022/08/22 13:25:18;;;;;;;;;;;;;;;25.35;43.98;101011.36;2339096;76;51556;-73
2022/08/22 13:28:20;;;;;;;5.25;2.12;;;;;;;25.36;43.95;101010.34;2336580;76;50346;-72
2022/08/22 13:31:30;;;;;;;5.42;2.40;;;;;;;25.36;43.89;101019.81;2326502;76;49577;-73
2022/08/22 13:34:41;;;;;;;7.40;2.30;;;;;;;25.37;43.90;101010.63;2336535;76;50385;-73
2022/08/22 13:37:44;;;;;;;5.62;2.25;;;;;;;25.37;43.86;101016.58;2335948;75;50380;-73
2022/08/22 13:40:47;;;;;;;7.25;2.25;;;;;;;25.38;43.80;101014.16;2326355;76;52490;-73
2022/08/22 13:44:10;;;;;;;4.78;2.20;;;;;;;25.38;43.79;101016.37;2336771;76;50438;-71
2022/08/22 13:47:21;;;;;;;3.47;2.17;;;;;;;25.38;43.75;101015.52;2336555;75;50396;-72
2022/08/22 13:50:26;;;;;;;4.00;1.80;;;;;;;25.35;43.85;101015.42;2336339;74;50510;-71
2022/08/22 13:53:39;;;;;;;4.28;2.05;;;;;;;25.36;43.81;101015.75;2289672;76;50640;-71
2022/08/22 13:56:51;;;;;;;2.95;2.25;;;;;;;25.36;43.82;101020.34;2287045;76;51041;-73
2022/08/22 14:00:11;;;;;;;5.17;2.47;;;;;;;25.37;43.78;101014.69;2326934;75;50034;-73
2022/08/22 14:03:20;;;;;;;3.62;2.17;;;;;;;25.36;43.83;101012.22;2328779;75;51423;-76
2022/08/22 14:06:42;;;;;;;4.42;2.15;;;;;;;25.34;43.84;101012.42;2284634;77;50974;-72
2022/08/22 14:09:56;;;;;;;6.92;2.45;;;;;;;25.35;43.80;101011.36;2301818;75;51552;-74
2022/08/22 14:13:02;;;;;;;5.85;2.30;;;;;;;25.36;43.81;101017.11;2311242;76;50354;-73
2022/08/22 14:16:07;;;;;;;5.83;2.00;;;;;;;25.37;43.78;101011.98;2320202;76;51300;-73
2022/08/22 14:19:12;;;;;;;4.20;2.20;;;;;;;25.37;43.71;101017.40;2289333;76;50266;-72
2022/08/22 14:22:16;;;;;;;4.47;2.43;;;;;;;25.38;43.73;101013.66;2295700;76;50201;-71
2022/08/22 14:25:26;;;;;;;4.80;2.20;;;;;;;25.36;43.75;101010.34;2320200;76;51644;-72
2022/08/22 14:28:34;;;;;;;4.75;2.35;;;;;;;25.36;43.76;101004.92;2319975;76;51532;-72
2022/08/22 14:31:36;;;;;;;4.45;2.20;;;;;;;25.34;43.82;101004.30;2296007;76;49597;-72
2022/08/22 14:34:40;;;;;;;2.62;2.12;;;;;;;25.33;43.84;100999.95;2320361;76;50678;-72
2022/08/22 14:37:43;;;;;;;2.52;1.75;;;;;;;25.37;43.77;101001.14;2319996;76;51540;-73
2022/08/22 14:40:45;;;;;;;4.03;2.15;;;;;;;25.33;43.86;100998.59;2329503;76;51533;-72
2022/08/22 14:44:00;;;;;;;5.03;2.20;;;;;;;25.36;43.81;100997.32;2336442;76;51486;-72
2022/08/22 14:47:04;;;;;;;3.90;2.20;;;;;;;25.36;43.79;101002.20;2318398;76;50040;-75
2022/08/22 14:50:11;;;;;;;3.52;1.80;;;;;;;25.36;43.81;101004.09;2340788;76;51664;-72
2022/08/22 14:53:20;;;;;;;3.70;2.00;;;;;;;25.37;43.78;100999.80;2313892;76;50378;-72
2022/08/22 14:56:26;;;;;;;4.30;1.98;;;;;;;25.35;43.85;100998.35;2286695;76;51611;-73
2022/08/22 14:59:34;;;;;;;3.72;2.22;;;;;;;25.33;43.87;100997.23;2301865;77;23926;-72